Time;durP1;ratioP1;P1;durP2;ratioP2;P2;SDS_P1;SDS_P2;PMS_P1;PMS_P2;Temp;Humidity;BMP_temperature;BMP_pressure;BME280_temperature;BME280_humidity;BME280_pressure;Samples;Min_cycle;Max_cycle;Signal;HPM_P1;HPM_P2
2022/10/17 00:01:37;;;;;;;2.33;1.30;;;;;;;;;;4493038;28;31719;-59
2022/10/17 00:03:47;;;;;;;1.20;1.10;;;;;;;;;;4492684;28;20038;-58
2022/10/17 00:05:58;;;;;;;1.25;1.15;;;;;;;;;;4491719;28;20069;-59
2022/10/17 00:08:10;;;;;;;2.03;1.40;;;;;;;;;;4492280;28;20022;-59
2022/10/17 00:10:21;;;;;;;1.30;1.10;;;;;;;;;;4507243;28;20128;-59
2022/10/17 00:12:32;;;;;;;1.30;1.20;;;;;;;;;;4495866;28;20048;-59
2022/10/17 00:14:42;;;;;;;1.73;1.20;;;;;;;;;;4493411;28;20046;-58
2022/10/17 00:16:53;;;;;;;1.27;1.17;;;;;;;;;;4491182;28;37238;-59
2022/10/17 00:19:05;;;;;;;1.63;1.30;;;;;;;;;;4492124;28;20043;-59
2022/10/17 00:21:17;;;;;;;1.30;1.20;;;;;;;;;;4491722;28;20549;-59
2022/10/17 00:23:29;;;;;;;1.30;1.20;;;;;;;;;;4492987;28;20022;-59
2022/10/17 00:25:39;;;;;;;1.58;1.45;;;;;;;;;;4494470;28;20034;-60
2022/10/17 00:27:50;;;;;;;1.20;1.10;;;;;;;;;;4494551;28;20042;-59
2022/10/17 00:30:00;;;;;;;1.33;1.23;;;;;;;;;;4492020;28;20042;-59
2022/10/17 00:32:11;;;;;;;1.20;1.10;;;;;;;;;;4494096;28;20141;-59
2022/10/17 00:34:22;;;;;;;1.42;1.30;;;;;;;;;;4495297;28;20556;-59
2022/10/17 00:36:35;;;;;;;1.38;1.23;;;;;;;;;;4492838;28;20200;-59
2022/10/17 00:38:49;;;;;;;2.50;1.40;;;;;;;;;;4492323;28;20042;-58
2022/10/17 00:41:00;;;;;;;1.58;1.20;;;;;;;;;;4491484;28;20133;-59
2022/10/17 00:43:16;;;;;;;1.35;1.25;;;;;;;;;;4494596;28;20038;-59
2022/10/17 00:45:29;;;;;;;1.60;1.50;;;;;;;;;;4493521;28;20529;-59
2022/10/17 00:47:39;;;;;;;2.15;1.33;;;;;;;;;;4505910;28;20033;-59
2022/10/17 00:49:50;;;;;;;1.30;1.20;;;;;;;;;;4495072;28;20041;-58
2022/10/17 00:52:04;;;;;;;1.40;1.30;;;;;;;;;;4490199;28;27852;-59
2022/10/17 00:54:16;;;;;;;1.70;1.40;;;;;;;;;;4495435;28;20038;-59
2022/10/17 00:56:26;;;;;;;2.25;1.40;;;;;;;;;;4494323;28;20034;-59
2022/10/17 00:58:37;;;;;;;1.33;1.23;;;;;;;;;;4494516;28;20041;-59
2022/10/17 01:00:48;;;;;;;1.20;1.10;;;;;;;;;;4491528;28;20113;-59
2022/10/17 01:02:59;;;;;;;1.52;1.30;;;;;;;;;;4494208;28;20034;-59
2022/10/17 01:05:10;;;;;;;1.30;1.20;;;;;;;;;;4483186;28;21489;-59
2022/10/17 01:07:20;;;;;;;1.10;1.00;;;;;;;;;;4475843;28;20037;-59
2022/10/17 01:09:31;;;;;;;1.20;1.10;;;;;;;;;;4499642;28;20045;-59
2022/10/17 01:11:50;;;;;;;1.10;1.00;;;;;;;;;;4492981;28;38770;-59
2022/10/17 01:14:26;;;;;;;1.45;1.30;;;;;;;;;;4496549;28;21247;-58
2022/10/17 01:17:01;;;;;;;1.17;1.08;;;;;;;;;;4493062;28;20112;-59
2022/10/17 01:19:30;;;;;;;1.45;1.20;;;;;;;;;;4476277;28;20148;-59
2022/10/17 01:21:59;;;;;;;1.30;1.20;;;;;;;;;;4499327;28;20046;-59
2022/10/17 01:24:22;;;;;;;2.33;1.30;;;;;;;;;;4483425;28;21148;-59
2022/10/17 01:26:51;;;;;;;1.20;1.10;;;;;;;;;;4507669;28;20551;-59
2022/10/17 01:29:26;;;;;;;1.30;1.20;;;;;;;;;;4501667;28;20084;-59
2022/10/17 01:31:51;;;;;;;1.20;1.10;;;;;;;;;;4483445;28;20081;-59
2022/10/17 01:34:18;;;;;;;1.60;1.50;;;;;;;;;;4472493;28;20041;-59
2022/10/17 01:36:37;;;;;;;1.60;1.30;;;;;;;;;;4482872;28;21168;-59
2022/10/17 01:39:02;;;;;;;1.23;1.13;;;;;;;;;;4506932;28;20238;-59
2022/10/17 01:41:23;;;;;;;1.48;1.38;;;;;;;;;;4483602;28;20058;-59
2022/10/17 01:43:40;;;;;;;1.25;1.15;;;;;;;;;;4490742;28;20041;-59
2022/10/17 01:46:01;;;;;;;1.20;1.10;;;;;;;;;;4483088;28;20050;-59
2022/10/17 01:48:21;;;;;;;1.30;1.20;;;;;;;;;;4475767;28;20107;-59
2022/10/17 01:50:35;;;;;;;1.35;1.20;;;;;;;;;;4489732;28;20086;-59
2022/10/17 01:52:56;;;;;;;1.33;1.23;;;;;;;;;;4473735;28;20073;-59
2022/10/17 01:55:13;;;;;;;1.38;1.27;;;;;;;;;;4475588;28;20615;-59
2022/10/17 01:57:27;;;;;;;1.30;1.20;;;;;;;;;;4476135;28;20038;-59
2022/10/17 01:59:43;;;;;;;1.30;1.20;;;;;;;;;;4490949;28;20733;-59
2022/10/17 02:01:55;;;;;;;1.55;1.35;;;;;;;;;;4485499;28;20059;-58
2022/10/17 02:04:07;;;;;;;1.30;1.20;;;;;;;;;;4482836;28;20038;-59
2022/10/17 02:06:18;;;;;;;1.30;1.20;;;;;;;;;;4489632;28;20085;-59
2022/10/17 02:08:41;;;;;;;1.40;1.30;;;;;;;;;;4494303;28;20345;-59
2022/10/17 02:11:04;;;;;;;1.20;1.10;;;;;;;;;;4477754;28;20093;-59
2022/10/17 02:13:53;;;;;;;1.30;1.20;;;;;;;;;;4482700;28;20038;-59
2022/10/17 02:16:29;;;;;;;1.30;1.20;;;;;;;;;;4431659;28;21002;-59
2022/10/17 02:18:58;;;;;;;1.13;1.02;;;;;;;;;;4500164;28;20120;-59
2022/10/17 02:21:17;;;;;;;1.23;1.13;;;;;;;;;;4499310;28;20710;-59
2022/10/17 02:23:46;;;;;;;1.42;1.10;;;;;;;;;;4493037;28;20029;-59
2022/10/17 02:26:29;;;;;;;1.30;1.08;;;;;;;;;;4479491;28;20054;-59
2022/10/17 02:29:07;;;;;;;1.40;1.30;;;;;;;;;;4490757;28;20046;-59
2022/10/17 02:31:43;;;;;;;1.20;1.10;;;;;;;;;;4499988;28;20053;-59
2022/10/17 02:33:57;;;;;;;1.30;1.20;;;;;;;;;;4490629;28;20041;-59
2022/10/17 02:36:11;;;;;;;1.30;1.20;;;;;;;;;;4492479;28;20030;-59
2022/10/17 02:38:22;;;;;;;1.15;1.05;;;;;;;;;;4494480;28;20669;-59
2022/10/17 02:40:32;;;;;;;1.35;1.20;;;;;;;;;;4476722;28;20616;-59
2022/10/17 02:42:43;;;;;;;1.20;1.10;;;;;;;;;;4482996;28;20046;-57
2022/10/17 02:45:00;;;;;;;1.30;1.20;;;;;;;;;;4474126;28;20141;-57
2022/10/17 02:47:13;;;;;;;1.35;1.20;;;;;;;;;;4482587;28;20038;-57
2022/10/17 02:49:28;;;;;;;1.55;1.40;;;;;;;;;;4491334;28;20037;-57
2022/10/17 02:51:44;;;;;;;1.35;1.25;;;;;;;;;;4492280;28;20133;-56
2022/10/17 02:54:16;;;;;;;1.50;1.20;;;;;;;;;;4484562;28;20039;-57
2022/10/17 02:56:28;;;;;;;1.50;1.30;;;;;;;;;;4498894;28;20751;-56
2022/10/17 02:58:39;;;;;;;1.60;1.40;;;;;;;;;;4497312;28;20701;-57
2022/10/17 03:00:50;;;;;;;1.60;1.50;;;;;;;;;;4494770;28;20370;-57
2022/10/17 03:03:00;;;;;;;1.40;1.30;;;;;;;;;;4491809;28;20049;-57
2022/10/17 03:05:13;;;;;;;1.38;1.27;;;;;;;;;;4479276;28;20050;-57
2022/10/17 03:07:23;;;;;;;1.80;1.40;;;;;;;;;;4476236;28;20035;-57
2022/10/17 03:09:34;;;;;;;1.67;1.42;;;;;;;;;;4495555;28;20593;-57
2022/10/17 03:11:44;;;;;;;1.73;1.40;;;;;;;;;;4494715;28;20034;-57
2022/10/17 03:13:55;;;;;;;1.33;1.23;;;;;;;;;;4507936;28;20500;-56
2022/10/17 03:16:05;;;;;;;1.23;1.13;;;;;;;;;;4495251;28;20460;-57
2022/10/17 03:18:16;;;;;;;1.48;1.30;;;;;;;;;;4501621;28;20065;-57
2022/10/17 03:20:27;;;;;;;1.55;1.25;;;;;;;;;;4494768;28;20041;-57
2022/10/17 03:22:38;;;;;;;1.52;1.20;;;;;;;;;;4494708;28;20049;-57
2022/10/17 03:24:49;;;;;;;1.40;1.30;;;;;;;;;;4495523;28;20037;-56
2022/10/17 03:27:00;;;;;;;2.33;1.27;;;;;;;;;;4501137;28;20026;-56
2022/10/17 03:29:10;;;;;;;1.30;1.20;;;;;;;;;;4507804;28;20430;-57
2022/10/17 03:31:22;;;;;;;2.08;1.20;;;;;;;;;;4478384;28;20113;-57
2022/10/17 03:33:34;;;;;;;1.30;1.20;;;;;;;;;;4494908;28;21471;-57
2022/10/17 03:35:45;;;;;;;1.65;1.20;;;;;;;;;;4503192;28;20175;-57
2022/10/17 03:37:55;;;;;;;1.30;1.20;;;;;;;;;;4494781;28;20069;-57
2022/10/17 03:40:07;;;;;;;1.98;1.40;;;;;;;;;;4501660;28;20500;-57
2022/10/17 03:42:18;;;;;;;1.40;1.30;;;;;;;;;;4494688;28;20479;-57
2022/10/17 03:44:28;;;;;;;1.60;1.40;;;;;;;;;;4492863;28;25832;-57
2022/10/17 03:46:38;;;;;;;1.80;1.50;;;;;;;;;;4495297;28;20031;-57
2022/10/17 03:48:49;;;;;;;2.10;1.70;;;;;;;;;;4495523;28;20097;-57
2022/10/17 03:51:02;;;;;;;1.67;1.58;;;;;;;;;;4492453;28;20304;-57
2022/10/17 03:53:14;;;;;;;1.30;1.20;;;;;;;;;;4491295;28;20133;-57
2022/10/17 03:55:24;;;;;;;1.55;1.45;;;;;;;;;;4501414;28;20075;-57
2022/10/17 03:57:35;;;;;;;2.08;1.48;;;;;;;;;;4493722;28;20175;-56
2022/10/17 03:59:50;;;;;;;1.60;1.42;;;;;;;;;;4494936;28;20096;-57
2022/10/17 04:02:02;;;;;;;1.58;1.40;;;;;;;;;;4494831;28;20042;-57
2022/10/17 04:04:13;;;;;;;1.20;1.10;;;;;;;;;;4493280;28;20034;-57
2022/10/17 04:06:23;;;;;;;1.48;1.38;;;;;;;;;;4500618;28;20030;-56
2022/10/17 04:08:34;;;;;;;1.50;1.40;;;;;;;;;;4491684;28;20046;-57
2022/10/17 04:10:59;;;;;;;1.48;1.33;;;;;;;;;;4485776;28;20153;-59
2022/10/17 04:13:10;;;;;;;1.50;1.23;;;;;;;;;;4483842;28;20575;-59
2022/10/17 04:15:21;;;;;;;1.85;1.40;;;;;;;;;;4501080;28;20649;-59
2022/10/17 04:17:31;;;;;;;1.58;1.20;;;;;;;;;;4494453;28;20040;-59
2022/10/17 04:19:42;;;;;;;1.98;1.35;;;;;;;;;;4493899;28;20614;-59
2022/10/17 04:21:52;;;;;;;1.30;1.20;;;;;;;;;;4492222;28;20030;-59
2022/10/17 04:24:04;;;;;;;1.83;1.63;;;;;;;;;;4493739;28;20088;-59
2022/10/17 04:26:41;;;;;;;1.40;1.20;;;;;;;;;;4490532;28;20109;-59
2022/10/17 04:28:51;;;;;;;1.40;1.30;;;;;;;;;;4477341;28;20054;-59
2022/10/17 04:31:04;;;;;;;1.55;1.40;;;;;;;;;;4500142;28;20125;-59
2022/10/17 04:33:20;;;;;;;1.50;1.27;;;;;;;;;;4475939;28;20848;-59
2022/10/17 04:35:31;;;;;;;2.13;1.50;;;;;;;;;;4500572;28;20091;-59
2022/10/17 04:37:46;;;;;;;1.83;1.40;;;;;;;;;;4499238;28;20026;-59
2022/10/17 04:40:01;;;;;;;1.40;1.30;;;;;;;;;;4484896;28;20037;-59
2022/10/17 04:42:15;;;;;;;1.50;1.30;;;;;;;;;;4500550;28;20054;-57
2022/10/17 04:44:29;;;;;;;1.70;1.60;;;;;;;;;;4494332;28;20113;-57
2022/10/17 04:46:40;;;;;;;2.70;1.38;;;;;;;;;;4489410;28;20026;-57
2022/10/17 04:48:51;;;;;;;1.60;1.50;;;;;;;;;;4493735;28;20053;-56
2022/10/17 04:51:04;;;;;;;1.50;1.40;;;;;;;;;;4499670;28;20105;-57
2022/10/17 04:53:21;;;;;;;1.80;1.52;;;;;;;;;;4489718;28;20042;-57
2022/10/17 04:55:36;;;;;;;1.50;1.40;;;;;;;;;;4475139;28;20125;-57
2022/10/17 04:57:47;;;;;;;1.45;1.30;;;;;;;;;;4502580;28;20053;-57
2022/10/17 05:00:03;;;;;;;1.60;1.50;;;;;;;;;;4493880;28;20030;-59
2022/10/17 05:02:32;;;;;;;1.63;1.40;;;;;;;;;;4489189;28;20101;-59
2022/10/17 05:04:45;;;;;;;2.08;1.60;;;;;;;;;;4494370;28;20411;-58
2022/10/17 05:06:57;;;;;;;1.73;1.42;;;;;;;;;;4494125;28;20041;-58
2022/10/17 05:09:25;;;;;;;1.80;1.48;;;;;;;;;;4493844;28;20038;-58
2022/10/17 05:11:35;;;;;;;2.03;1.38;;;;;;;;;;4500442;28;20034;-58
2022/10/17 05:13:54;;;;;;;1.63;1.40;;;;;;;;;;4493063;28;20064;-58
2022/10/17 05:16:06;;;;;;;2.08;1.58;;;;;;;;;;4489261;28;20041;-58
2022/10/17 05:18:16;;;;;;;1.90;1.60;;;;;;;;;;4499556;28;20077;-58
2022/10/17 05:20:27;;;;;;;1.73;1.42;;;;;;;;;;4494576;28;20041;-58
2022/10/17 05:22:38;;;;;;;2.47;1.63;;;;;;;;;;4482664;28;20050;-58
2022/10/17 05:24:49;;;;;;;1.50;1.40;;;;;;;;;;4506886;28;20038;-58
2022/10/17 05:26:59;;;;;;;2.05;1.77;;;;;;;;;;4499823;28;20038;-57
2022/10/17 05:29:10;;;;;;;2.25;1.80;;;;;;;;;;4493170;28;20481;-59
2022/10/17 05:31:25;;;;;;;2.10;1.83;;;;;;;;;;4483339;28;20042;-58
2022/10/17 05:33:37;;;;;;;2.13;1.60;;;;;;;;;;4493463;28;20038;-59
2022/10/17 05:35:47;;;;;;;1.70;1.60;;;;;;;;;;4488887;28;20322;-58
2022/10/17 05:37:59;;;;;;;1.85;1.55;;;;;;;;;;4492702;28;20627;-58
2022/10/17 05:40:10;;;;;;;2.08;1.73;;;;;;;;;;4488738;28;20034;-58
2022/10/17 05:42:21;;;;;;;2.30;1.58;;;;;;;;;;4499495;28;20103;-59
2022/10/17 05:44:32;;;;;;;2.33;1.75;;;;;;;;;;4494533;28;20626;-58
2022/10/17 05:46:43;;;;;;;2.38;1.50;;;;;;;;;;4493228;28;20576;-59
2022/10/17 05:48:54;;;;;;;1.73;1.48;;;;;;;;;;4500132;28;20037;-58
2022/10/17 05:51:07;;;;;;;1.90;1.70;;;;;;;;;;4499954;28;20069;-59
2022/10/17 05:53:18;;;;;;;2.42;1.40;;;;;;;;;;4476404;28;20031;-59
2022/10/17 05:55:32;;;;;;;2.50;1.70;;;;;;;;;;4500580;28;20499;-59
2022/10/17 05:57:43;;;;;;;1.70;1.60;;;;;;;;;;4493402;28;33910;-59
2022/10/17 05:59:58;;;;;;;1.88;1.50;;;;;;;;;;4478983;28;20611;-57
2022/10/17 06:02:11;;;;;;;2.85;1.60;;;;;;;;;;4494047;28;20416;-59
2022/10/17 06:04:21;;;;;;;1.42;1.33;;;;;;;;;;4482775;28;20023;-58
2022/10/17 06:06:32;;;;;;;1.77;1.50;;;;;;;;;;4494283;28;20317;-58
2022/10/17 06:08:43;;;;;;;1.77;1.40;;;;;;;;;;4490919;28;20035;-58
2022/10/17 06:10:58;;;;;;;1.63;1.50;;;;;;;;;;4481854;28;20031;-58
2022/10/17 06:13:08;;;;;;;1.98;1.52;;;;;;;;;;4494212;28;20030;-58
2022/10/17 06:15:19;;;;;;;1.50;1.40;;;;;;;;;;4494062;28;20073;-58
2022/10/17 06:17:34;;;;;;;1.42;1.33;;;;;;;;;;4499114;28;20038;-58
2022/10/17 06:19:45;;;;;;;1.98;1.60;;;;;;;;;;4498889;28;20034;-58
2022/10/17 06:21:56;;;;;;;1.52;1.30;;;;;;;;;;4499240;28;20547;-59
2022/10/17 06:24:09;;;;;;;2.33;1.58;;;;;;;;;;4493024;28;20041;-58
2022/10/17 06:26:21;;;;;;;1.33;1.20;;;;;;;;;;4476858;28;20027;-58
2022/10/17 06:28:32;;;;;;;1.60;1.50;;;;;;;;;;4491126;28;20034;-58
2022/10/17 06:30:43;;;;;;;2.45;1.40;;;;;;;;;;4486446;28;20132;-59
2022/10/17 06:32:54;;;;;;;1.70;1.52;;;;;;;;;;4479981;28;20120;-58
2022/10/17 06:35:05;;;;;;;1.60;1.50;;;;;;;;;;4495480;28;20072;-57
2022/10/17 06:37:16;;;;;;;2.65;1.58;;;;;;;;;;4485190;28;20543;-58
2022/10/17 06:39:32;;;;;;;2.15;1.52;;;;;;;;;;4497340;28;20070;-57
2022/10/17 06:41:48;;;;;;;1.70;1.60;;;;;;;;;;4496990;28;20108;-58
2022/10/17 06:44:08;;;;;;;2.17;1.60;;;;;;;;;;4494621;28;20629;-57
2022/10/17 06:46:31;;;;;;;1.95;1.63;;;;;;;;;;4494277;28;20579;-58
2022/10/17 06:48:47;;;;;;;1.67;1.50;;;;;;;;;;4495218;28;20038;-58
2022/10/17 06:51:11;;;;;;;1.60;1.50;;;;;;;;;;4493874;28;20073;-58
2022/10/17 06:53:35;;;;;;;1.52;1.40;;;;;;;;;;4502923;28;20026;-58
2022/10/17 06:55:54;;;;;;;1.58;1.40;;;;;;;;;;4492152;28;20022;-58
2022/10/17 06:58:32;;;;;;;1.38;1.27;;;;;;;;;;4494116;28;21079;-57
2022/10/17 07:00:52;;;;;;;1.60;1.42;;;;;;;;;;4502514;28;20744;-57
2022/10/17 07:03:02;;;;;;;1.50;1.40;;;;;;;;;;4482431;28;20074;-58
2022/10/17 07:05:13;;;;;;;1.73;1.40;;;;;;;;;;4493021;28;20038;-57
2022/10/17 07:07:23;;;;;;;1.55;1.42;;;;;;;;;;4495545;28;20049;-58
2022/10/17 07:09:34;;;;;;;1.55;1.38;;;;;;;;;;4503588;28;20038;-58
2022/10/17 07:11:45;;;;;;;2.00;1.40;;;;;;;;;;4480342;28;20035;-58
2022/10/17 07:13:57;;;;;;;2.28;1.60;;;;;;;;;;4491777;28;21762;-58
2022/10/17 07:16:08;;;;;;;2.80;1.92;;;;;;;;;;4501344;28;25570;-58
2022/10/17 07:18:19;;;;;;;2.28;1.52;;;;;;;;;;4501139;28;20038;-58
2022/10/17 07:20:30;;;;;;;2.30;1.83;;;;;;;;;;4494651;28;20393;-57
2022/10/17 07:22:40;;;;;;;1.73;1.58;;;;;;;;;;4496230;28;20057;-58
2022/10/17 07:24:50;;;;;;;1.90;1.60;;;;;;;;;;4494578;28;20088;-58
2022/10/17 07:27:12;;;;;;;1.83;1.58;;;;;;;;;;4495537;28;20045;-57
2022/10/17 07:29:22;;;;;;;1.83;1.60;;;;;;;;;;4501089;28;20037;-58
2022/10/17 07:31:41;;;;;;;1.85;1.60;;;;;;;;;;4493325;28;20104;-58
2022/10/17 07:33:52;;;;;;;2.13;1.60;;;;;;;;;;4493226;28;20121;-58
2022/10/17 07:36:04;;;;;;;2.13;1.48;;;;;;;;;;4492480;28;20034;-58
2022/10/17 07:38:14;;;;;;;1.80;1.40;;;;;;;;;;4492440;28;20035;-58
2022/10/17 07:40:25;;;;;;;2.25;1.40;;;;;;;;;;4491702;28;20030;-58
2022/10/17 07:42:36;;;;;;;1.75;1.65;;;;;;;;;;4508995;28;20042;-58
2022/10/17 07:44:46;;;;;;;1.52;1.40;;;;;;;;;;4480397;28;20041;-58
2022/10/17 07:46:57;;;;;;;2.25;1.40;;;;;;;;;;4495252;28;20851;-58
2022/10/17 07:49:07;;;;;;;2.00;1.60;;;;;;;;;;4507468;28;20567;-58
2022/10/17 07:51:19;;;;;;;2.40;1.65;;;;;;;;;;4494893;28;20026;-58
2022/10/17 07:53:29;;;;;;;1.70;1.50;;;;;;;;;;4494141;28;20096;-58
2022/10/17 07:55:40;;;;;;;1.73;1.60;;;;;;;;;;4493933;28;20651;-58
2022/10/17 07:57:51;;;;;;;2.03;1.70;;;;;;;;;;4507011;28;20627;-58
2022/10/17 08:00:01;;;;;;;1.73;1.60;;;;;;;;;;4491078;28;20038;-59
2022/10/17 08:02:23;;;;;;;1.95;1.70;;;;;;;;;;4491303;28;20038;-58
2022/10/17 08:04:35;;;;;;;2.08;1.70;;;;;;;;;;4493158;28;20064;-58
2022/10/17 08:06:45;;;;;;;2.25;1.60;;;;;;;;;;4492992;28;20037;-60
2022/10/17 08:08:56;;;;;;;1.65;1.52;;;;;;;;;;4492247;28;21195;-58
2022/10/17 08:11:09;;;;;;;3.10;1.70;;;;;;;;;;4501132;28;20117;-58
2022/10/17 08:13:21;;;;;;;1.70;1.35;;;;;;;;;;4492743;28;20142;-57
2022/10/17 08:15:32;;;;;;;2.50;1.70;;;;;;;;;;4492716;28;20037;-58
2022/10/17 08:17:42;;;;;;;2.17;1.40;;;;;;;;;;4493056;28;26266;-57
2022/10/17 08:19:53;;;;;;;1.58;1.40;;;;;;;;;;4492131;28;20041;-57
2022/10/17 08:22:03;;;;;;;1.70;1.33;;;;;;;;;;4494145;28;20136;-57
2022/10/17 08:24:14;;;;;;;1.65;1.50;;;;;;;;;;4492300;28;27112;-57
2022/10/17 08:26:24;;;;;;;1.65;1.55;;;;;;;;;;4489862;28;20141;-57
2022/10/17 08:28:36;;;;;;;1.60;1.50;;;;;;;;;;4490531;28;33854;-59
2022/10/17 08:30:47;;;;;;;1.85;1.50;;;;;;;;;;4497096;28;20040;-58
2022/10/17 08:32:57;;;;;;;2.15;1.83;;;;;;;;;;4491780;28;20045;-58
2022/10/17 08:35:08;;;;;;;1.73;1.50;;;;;;;;;;4491882;28;20096;-58
2022/10/17 08:37:19;;;;;;;1.50;1.40;;;;;;;;;;4492044;28;20088;-61
2022/10/17 08:39:29;;;;;;;1.92;1.50;;;;;;;;;;4491018;28;20169;-58
2022/10/17 08:42:04;;;;;;;1.80;1.60;;;;;;;;;;4491643;28;20046;-59
2022/10/17 08:44:37;;;;;;;1.50;1.40;;;;;;;;;;4492828;28;20045;-58
2022/10/17 08:46:50;;;;;;;1.95;1.77;;;;;;;;;;4492096;28;20034;-58
2022/10/17 08:49:03;;;;;;;1.77;1.40;;;;;;;;;;4493350;28;20035;-57
2022/10/17 08:51:21;;;;;;;2.05;1.70;;;;;;;;;;4492227;28;20320;-57
2022/10/17 08:53:35;;;;;;;1.63;1.40;;;;;;;;;;4494400;28;20729;-58
2022/10/17 08:55:48;;;;;;;1.60;1.50;;;;;;;;;;4491252;28;20138;-60
2022/10/17 08:57:59;;;;;;;1.77;1.60;;;;;;;;;;4490191;28;20030;-60
2022/10/17 09:00:16;;;;;;;1.88;1.42;;;;;;;;;;4491953;28;20497;-64
2022/10/17 09:02:33;;;;;;;1.85;1.30;;;;;;;;;;4496924;28;20771;-61
2022/10/17 09:05:25;;;;;;;1.73;1.50;;;;;;;;;;4493559;28;20031;-62
2022/10/17 09:08:17;;;;;;;1.52;1.30;;;;;;;;;;4450734;28;20051;-63
2022/10/17 09:10:37;;;;;;;1.55;1.45;;;;;;;;;;4491091;28;20077;-59
2022/10/17 09:13:05;;;;;;;1.95;1.60;;;;;;;;;;4492545;28;20049;-59
2022/10/17 09:15:33;;;;;;;1.50;1.40;;;;;;;;;;4493309;28;20572;-59
2022/10/17 09:17:54;;;;;;;1.35;1.25;;;;;;;;;;4496102;28;20069;-59
2022/10/17 09:20:18;;;;;;;1.25;1.15;;;;;;;;;;4496937;28;20696;-60
2022/10/17 09:22:40;;;;;;;1.55;1.38;;;;;;;;;;4496707;28;20487;-59
2022/10/17 09:24:54;;;;;;;1.45;1.30;;;;;;;;;;4497031;28;20030;-59
2022/10/17 09:27:11;;;;;;;1.85;1.40;;;;;;;;;;4491019;28;20038;-59
2022/10/17 09:29:24;;;;;;;1.75;1.20;;;;;;;;;;4490107;28;20236;-59
2022/10/17 09:31:41;;;;;;;1.60;1.45;;;;;;;;;;4493578;28;20051;-59
2022/10/17 09:33:54;;;;;;;1.58;1.40;;;;;;;;;;4490069;28;20038;-59
2022/10/17 09:36:28;;;;;;;2.15;1.48;;;;;;;;;;4483458;28;20045;-59
2022/10/17 09:38:46;;;;;;;2.42;1.30;;;;;;;;;;4490495;28;20167;-59
2022/10/17 09:40:59;;;;;;;2.10;1.40;;;;;;;;;;4498939;28;20521;-59
2022/10/17 09:43:13;;;;;;;1.65;1.38;;;;;;;;;;4477258;28;20627;-59
2022/10/17 09:45:25;;;;;;;1.50;1.40;;;;;;;;;;4491645;28;20064;-58
2022/10/17 09:48:07;;;;;;;2.38;1.33;;;;;;;;;;4491571;28;20038;-59
2022/10/17 09:50:27;;;;;;;1.40;1.30;;;;;;;;;;4490943;28;20034;-59
2022/10/17 09:52:39;;;;;;;1.50;1.25;;;;;;;;;;4489265;28;20049;-59
2022/10/17 09:54:57;;;;;;;1.30;1.20;;;;;;;;;;4491411;28;20042;-62
2022/10/17 09:57:09;;;;;;;1.40;1.20;;;;;;;;;;4499774;28;20138;-59
2022/10/17 09:59:32;;;;;;;2.50;1.60;;;;;;;;;;4506529;28;20156;-59
2022/10/17 10:01:43;;;;;;;1.48;1.38;;;;;;;;;;4474874;28;20100;-60
2022/10/17 10:04:11;;;;;;;2.50;1.48;;;;;;;;;;4492871;28;30425;-60
2022/10/17 10:06:21;;;;;;;2.63;1.40;;;;;;;;;;4493637;28;20089;-59
2022/10/17 10:08:35;;;;;;;1.33;1.17;;;;;;;;;;4496204;28;20042;-60
2022/10/17 10:10:45;;;;;;;1.60;1.30;;;;;;;;;;4497966;28;20045;-60
2022/10/17 10:13:14;;;;;;;2.30;1.40;;;;;;;;;;4493378;28;20041;-60
2022/10/17 10:15:37;;;;;;;1.80;1.30;;;;;;;;;;4494609;28;20035;-60
2022/10/17 10:17:47;;;;;;;1.67;1.38;;;;;;;;;;4491861;28;20030;-60
2022/10/17 10:19:58;;;;;;;2.10;1.35;;;;;;;;;;4495421;28;20038;-61
2022/10/17 10:22:16;;;;;;;2.38;1.58;;;;;;;;;;4494669;28;20046;-60
2022/10/17 10:24:27;;;;;;;2.47;1.30;;;;;;;;;;4494782;28;20038;-60
2022/10/17 10:26:40;;;;;;;2.13;1.45;;;;;;;;;;4493026;28;20046;-61
2022/10/17 10:29:00;;;;;;;1.40;1.30;;;;;;;;;;4507706;28;20548;-60
2022/10/17 10:31:10;;;;;;;2.40;1.60;;;;;;;;;;4502493;28;20544;-60
2022/10/17 10:33:22;;;;;;;1.40;1.30;;;;;;;;;;4495051;28;20042;-60
2022/10/17 10:35:35;;;;;;;2.22;1.27;;;;;;;;;;4494617;28;20045;-60
2022/10/17 10:37:48;;;;;;;1.42;1.20;;;;;;;;;;4493112;28;20034;-60
2022/10/17 10:40:05;;;;;;;1.50;1.35;;;;;;;;;;4494732;28;20204;-61
2022/10/17 10:42:24;;;;;;;1.92;1.30;;;;;;;;;;4494762;28;20038;-60
2022/10/17 10:44:37;;;;;;;2.10;1.30;;;;;;;;;;4500936;28;20029;-60
2022/10/17 10:46:47;;;;;;;2.67;1.40;;;;;;;;;;4493840;28;20128;-60
2022/10/17 10:49:00;;;;;;;1.40;1.30;;;;;;;;;;4492976;28;20059;-61
2022/10/17 10:51:14;;;;;;;2.38;1.50;;;;;;;;;;4493376;28;20039;-61
2022/10/17 10:53:30;;;;;;;1.83;1.55;;;;;;;;;;4492556;28;20034;-60
2022/10/17 10:55:56;;;;;;;2.33;1.42;;;;;;;;;;4492610;28;20041;-60
2022/10/17 10:58:29;;;;;;;1.98;1.40;;;;;;;;;;4501087;28;20081;-60
2022/10/17 11:00:40;;;;;;;1.77;1.55;;;;;;;;;;4444931;28;20117;-60
2022/10/17 11:03:14;;;;;;;1.50;1.33;;;;;;;;;;4495100;28;20097;-60
2022/10/17 11:05:49;;;;;;;2.15;1.58;;;;;;;;;;4495922;28;20116;-60
2022/10/17 11:08:11;;;;;;;2.47;1.52;;;;;;;;;;4492134;28;20038;-60
2022/10/17 11:10:32;;;;;;;2.03;1.35;;;;;;;;;;4493488;28;20030;-60
2022/10/17 11:12:58;;;;;;;1.38;1.27;;;;;;;;;;4492755;28;20141;-60
2022/10/17 11:15:19;;;;;;;1.50;1.30;;;;;;;;;;4484679;28;20033;-60
2022/10/17 11:17:55;;;;;;;2.10;1.50;;;;;;;;;;4501672;28;20827;-60
2022/10/17 11:20:27;;;;;;;1.80;1.20;;;;;;;;;;4494194;28;20631;-61
2022/10/17 11:22:44;;;;;;;2.85;1.40;;;;;;;;;;4492315;28;20773;-60
2022/10/17 11:25:02;;;;;;;2.17;1.60;;;;;;;;;;4495866;28;20620;-60
2022/10/17 11:27:13;;;;;;;1.95;1.40;;;;;;;;;;4492090;28;20137;-60
2022/10/17 11:29:32;;;;;;;2.05;1.48;;;;;;;;;;4492443;28;20041;-60
2022/10/17 11:31:48;;;;;;;1.52;1.30;;;;;;;;;;4478642;28;20054;-60
2022/10/17 11:34:04;;;;;;;2.25;1.70;;;;;;;;;;4494938;28;20022;-60
2022/10/17 11:36:17;;;;;;;1.60;1.50;;;;;;;;;;4493161;28;20033;-60
2022/10/17 11:38:42;;;;;;;2.42;1.50;;;;;;;;;;4492525;28;20129;-60
2022/10/17 11:40:56;;;;;;;2.05;1.52;;;;;;;;;;4501207;28;20029;-59
2022/10/17 11:43:16;;;;;;;1.52;1.20;;;;;;;;;;4493697;28;20140;-60
2022/10/17 11:45:30;;;;;;;1.85;1.40;;;;;;;;;;4491352;28;20022;-60
2022/10/17 11:47:44;;;;;;;2.08;1.40;;;;;;;;;;4497229;28;20065;-60
2022/10/17 11:50:24;;;;;;;2.05;1.40;;;;;;;;;;4492454;28;20164;-59
2022/10/17 11:52:40;;;;;;;1.42;1.33;;;;;;;;;;4467352;28;20066;-60
2022/10/17 11:54:54;;;;;;;2.28;1.42;;;;;;;;;;4493468;28;20029;-60
2022/10/17 11:57:25;;;;;;;2.65;1.55;;;;;;;;;;4490640;28;20048;-60
2022/10/17 11:59:51;;;;;;;3.50;1.58;;;;;;;;;;4490532;28;20589;-59
2022/10/17 12:02:19;;;;;;;2.30;1.70;;;;;;;;;;4501388;28;20064;-60
2022/10/17 12:04:45;;;;;;;2.85;1.75;;;;;;;;;;4495754;28;20126;-59
2022/10/17 12:07:09;;;;;;;1.70;1.50;;;;;;;;;;4492279;28;20637;-60
2022/10/17 12:09:56;;;;;;;2.45;1.35;;;;;;;;;;4491258;28;20035;-60
2022/10/17 12:12:06;;;;;;;1.52;1.42;;;;;;;;;;4500509;28;20121;-59
2022/10/17 12:14:32;;;;;;;1.52;1.27;;;;;;;;;;4493045;28;20050;-60
2022/10/17 12:16:43;;;;;;;2.10;1.70;;;;;;;;;;4491954;28;20042;-60
2022/10/17 12:19:00;;;;;;;2.40;1.70;;;;;;;;;;4497516;28;20116;-60
2022/10/17 12:21:10;;;;;;;1.85;1.50;;;;;;;;;;4492660;28;20080;-60
2022/10/17 12:23:25;;;;;;;1.65;1.40;;;;;;;;;;4493120;28;26133;-60
2022/10/17 12:25:47;;;;;;;2.65;1.45;;;;;;;;;;4495237;28;20049;-60
2022/10/17 12:28:18;;;;;;;1.70;1.40;;;;;;;;;;4492008;28;20034;-60
2022/10/17 12:30:29;;;;;;;1.90;1.52;;;;;;;;;;4495224;28;20053;-59
2022/10/17 12:32:53;;;;;;;2.53;1.30;;;;;;;;;;4491979;28;20045;-60
2022/10/17 12:35:04;;;;;;;1.73;1.60;;;;;;;;;;4496728;28;20034;-60
2022/10/17 12:37:49;;;;;;;2.55;1.50;;;;;;;;;;4491316;28;20038;-60
2022/10/17 12:40:00;;;;;;;2.58;1.52;;;;;;;;;;4492944;28;20137;-60
2022/10/17 12:42:47;;;;;;;2.15;1.40;;;;;;;;;;4490852;28;34682;-60
2022/10/17 12:44:58;;;;;;;1.50;1.30;;;;;;;;;;4476465;28;20046;-59
2022/10/17 12:47:08;;;;;;;1.60;1.50;;;;;;;;;;4491689;28;20046;-60
2022/10/17 12:49:39;;;;;;;1.40;1.30;;;;;;;;;;4491782;28;20493;-60
2022/10/17 12:52:20;;;;;;;1.70;1.60;;;;;;;;;;4491450;28;20144;-60
2022/10/17 12:54:37;;;;;;;2.60;1.40;;;;;;;;;;4492941;28;20042;-60
2022/10/17 12:56:48;;;;;;;2.20;1.50;;;;;;;;;;4466901;28;20027;-60
2022/10/17 12:58:59;;;;;;;1.50;1.40;;;;;;;;;;4492852;28;20053;-60
2022/10/17 13:01:17;;;;;;;1.67;1.38;;;;;;;;;;4492267;28;20133;-60
2022/10/17 13:03:31;;;;;;;1.60;1.50;;;;;;;;;;4479696;28;20042;-61
2022/10/17 13:05:49;;;;;;;1.70;1.60;;;;;;;;;;4490440;28;20038;-61
2022/10/17 13:08:02;;;;;;;1.63;1.48;;;;;;;;;;4488951;28;20026;-60
2022/10/17 13:10:22;;;;;;;1.50;1.40;;;;;;;;;;4482727;28;20030;-60
2022/10/17 13:12:35;;;;;;;2.13;1.50;;;;;;;;;;4490390;28;20113;-61
2022/10/17 13:14:46;;;;;;;1.70;1.50;;;;;;;;;;4483048;28;20034;-60
2022/10/17 13:16:59;;;;;;;1.83;1.40;;;;;;;;;;4489815;28;25820;-60
2022/10/17 13:19:15;;;;;;;1.95;1.52;;;;;;;;;;4490618;28;20042;-61
2022/10/17 13:21:26;;;;;;;2.13;1.47;;;;;;;;;;4490845;28;20046;-60
2022/10/17 13:23:36;;;;;;;1.52;1.30;;;;;;;;;;4494502;28;20129;-60
2022/10/17 13:25:47;;;;;;;2.40;1.60;;;;;;;;;;4499533;28;20392;-60
2022/10/17 13:28:07;;;;;;;1.70;1.40;;;;;;;;;;4489356;28;23396;-59
2022/10/17 13:30:27;;;;;;;2.53;1.77;;;;;;;;;;4489148;28;20048;-60
2022/10/17 13:32:39;;;;;;;2.72;1.60;;;;;;;;;;4491629;28;20106;-60
2022/10/17 13:35:08;;;;;;;2.10;1.70;;;;;;;;;;4489626;28;20046;-60
2022/10/17 13:37:18;;;;;;;1.77;1.40;;;;;;;;;;4491711;28;20042;-60